• Join FlightAware (Why Join?)
  • Login
  • US Flag 
04:45AM EDT


 

Airport Tracker/Info


-or-


 

Live Flight TrackerFlight Track Log ✈ N55ZG ✈ 07-Jul-2013 ✈ KMVY - KBED

Flight Track Log - Related Links

Times and Time Zones

All times are in EDT time to prevent confusion due to time zone crossing. See the N55ZG flight status page for this flight to view local times or setup timezone preferences in your user account.

Time Position Orientation Groundspeed Altitude Reporting Facility
EDT Latitude Longitude Course Direction KTS MPH feet Rate Location/Type
07:53PM 41.6127 -70.5907 North  Level FlightAware Approximate
07:54PM 41.6509 -70.5875 North  Level FlightAware Approximate
07:55PM 41.6891 -70.5843 North  Level FlightAware Approximate
07:56PM 41.7273 -70.5811 North  Level FlightAware Approximate
07:57PM 41.7655 -70.5779 North  Level FlightAware Approximate
07:57PM 41.7833 -70.8167 318° Northwest 183 211 4,000  Level KA90
07:58PM 41.8037 -70.5747 North  Level FlightAware Approximate
07:58PM 41.8333 -70.8500 334° Northwest 180 207 4,000  Level KA90
07:59PM 41.8419 -70.5715 North  Level FlightAware Approximate
07:59PM 41.8667 -70.8833 323° Northwest 179 206 4,000  Level KA90
08:00PM 41.8801 -70.5683 North  Level FlightAware Approximate
08:01PM 41.9134 -70.5834 317° Northwest  Level FlightAware Approximate
08:01PM 41.9333 -70.9167 340° North 183 211 4,000  Level KA90
08:01PM 41.9667 -70.9500 323° Northwest 191 220 4,000 -60 Level KA90
08:02PM 41.9415 -70.6185 317° Northwest  Level FlightAware Approximate
08:02PM 42.0167 -70.9833 334° Northwest 183 211 3,900  Level KA90
08:03PM 41.9695 -70.6535 318° Northwest  Level FlightAware Approximate
08:04PM 42.0500 -71.0333 312° West 183 211 3,300  Level KA90
08:04PM 42.0833 -71.0833 312° West 180 207 3,000 -180 Descending KA90
08:05PM 42.1167 -71.1167 323° Northwest 173 199 3,000  Level KA90
08:06PM 42.1500 -71.1667 312° West 171 197 3,000  Level KA90
08:07PM 42.1833 -71.2167 312° West 171 197 3,000  Level KA90
08:08PM 42.2333 -71.2333 346° North 184 212 3,000  Level KA90
08:10PM 42.2833 -71.2500 346° North 183 211 3,000  Level KA90
08:11PM 42.3333 -71.2500 360° North 179 206 3,000 -120 Level KA90
08:11PM 42.3667 -71.2500 360° North 171 197 2,800 -540 Descending KA90
08:12PM 42.4000 -71.2167 36° Northeast 188 216 2,100 -780 Descending KA90
08:14PM 42.4500 -71.2000 14° North 125 144 1,100 -600 Descending KA90
08:14PM 42.4667 -71.2333 304° West 97 112 800 -360 Descending KA90
08:16PM 42.4667 -71.2833 324° Northwest  Level FlightAware Approximate
08:23PM 42.4699 -71.2890 324° Northwest  Level Estimated
08:24PM 42.4667 -71.2833 324° Northwest  Level FlightAware Approximate